Time;durP1;ratioP1;P1;durP2;ratioP2;P2;SDS_P1;SDS_P2;PMS_P1;PMS_P2;Temp;Humidity;BMP_temperature;BMP_pressure;BME280_temperature;BME280_humidity;BME280_pressure;Samples;Min_cycle;Max_cycle;Signal;HPM_P1;HPM_P2
2021/08/22 00:01:59;;;;;;;5.93;2.50;;;;;;;9.83;96.84;101814.19;4834449;29;20038;-83
2021/08/22 00:04:24;;;;;;;5.10;2.47;;;;;;;9.77;97.15;101823.78;4800816;29;20037;-82
2021/08/22 00:06:50;;;;;;;4.07;2.30;;;;;;;9.75;97.49;101816.91;4817738;29;20034;-82
2021/08/22 00:09:15;;;;;;;7.97;2.50;;;;;;;9.75;97.97;101823.09;4815958;29;20034;-82
2021/08/22 00:11:40;;;;;;;4.80;2.30;;;;;;;9.73;97.32;101817.03;4830081;29;20081;-82
2021/08/22 00:14:06;;;;;;;6.45;2.60;;;;;;;9.67;96.80;101815.06;4814497;29;20057;-82
2021/08/22 00:16:31;;;;;;;5.97;2.10;;;;;;;9.53;97.58;101794.22;4825893;29;20103;-83
2021/08/22 00:18:57;;;;;;;8.07;2.47;;;;;;;9.51;97.60;101791.72;4833204;29;20056;-81
2021/08/22 00:21:22;;;;;;;6.85;2.20;;;;;;;9.65;97.67;101823.28;4829804;29;20098;-83
2021/08/22 00:23:47;;;;;;;8.15;2.40;;;;;;;9.58;97.38;101821.44;4819463;29;20089;-82
2021/08/22 00:26:13;;;;;;;6.05;2.50;;;;;;;9.52;97.72;101822.94;4813462;29;20037;-81
2021/08/22 00:28:38;;;;;;;8.60;2.67;;;;;;;9.50;97.57;101814.19;4823098;29;20064;-83
2021/08/22 00:31:04;;;;;;;5.82;2.25;;;;;;;9.47;97.69;101809.19;4836737;29;20079;-82
2021/08/22 00:33:30;;;;;;;7.22;2.33;;;;;;;9.33;97.17;101794.53;4814740;29;20126;-82
2021/08/22 00:35:55;;;;;;;9.60;2.50;;;;;;;9.52;97.99;101816.72;4830432;29;20050;-82
2021/08/22 00:38:21;;;;;;;7.53;2.53;;;;;;;9.54;97.71;101825.47;4832618;29;20413;-81
2021/08/22 00:40:49;;;;;;;4.93;2.03;;;;;;;9.52;97.74;101822.09;4818414;29;20043;-83
2021/08/22 00:43:15;;;;;;;4.13;2.40;;;;;;;9.48;97.97;101820.75;4830491;29;20054;-82
2021/08/22 00:45:42;;;;;;;5.50;2.33;;;;;;;9.26;97.70;101801.59;4830311;29;20065;-82
2021/08/22 00:48:08;;;;;;;7.53;2.30;;;;;;;9.38;98.02;101816.38;4834397;29;20034;-82
2021/08/22 00:50:34;;;;;;;6.38;2.60;;;;;;;9.38;98.46;101816.38;4834335;29;20049;-83
2021/08/22 00:53:03;;;;;;;4.28;2.38;;;;;;;9.26;97.93;101800.75;4832487;29;20034;-82
2021/08/22 00:55:28;;;;;;;7.78;2.38;;;;;;;9.34;97.73;101812.34;4829521;29;20026;-83
2021/08/22 00:57:55;;;;;;;6.88;2.10;;;;;;;9.22;97.99;101799.41;4832115;29;20060;-83
2021/08/22 01:00:22;;;;;;;3.58;2.40;;;;;;;9.25;97.32;101818.72;4818845;29;20038;-81
2021/08/22 01:03:06;;;;;;;6.50;2.38;;;;;;;9.14;97.51;101819.88;4833291;29;20039;-81
2021/08/22 01:05:41;;;;;;;5.82;2.50;;;;;;;9.11;97.94;101819.38;4847030;29;20473;-82
2021/08/22 01:08:40;;;;;;;6.45;2.22;;;;;;;9.03;98.14;101808.59;4830052;29;20095;-81
2021/08/22 01:11:12;;;;;;;5.00;2.80;;;;;;;9.01;97.74;101819.50;4833193;29;20070;-82
2021/08/22 01:13:44;;;;;;;8.98;2.53;;;;;;;8.85;97.74;101790.78;4849303;29;20030;-82
2021/08/22 01:16:12;;;;;;;4.32;2.30;;;;;;;8.96;97.95;101813.78;4824750;29;20023;-83
2021/08/22 01:18:39;;;;;;;10.07;2.70;;;;;;;9.07;97.94;101815.31;4838193;29;20107;-83
2021/08/22 01:21:13;;;;;;;8.50;2.30;;;;;;;8.92;97.89;101790.97;4835925;29;20037;-82
2021/08/22 01:23:57;;;;;;;5.45;2.63;;;;;;;8.93;97.91;101814.94;4829801;29;20034;-83
2021/08/22 01:26:29;;;;;;;8.68;2.88;;;;;;;8.89;97.92;101805.53;4817886;29;20054;-82
2021/08/22 01:28:59;;;;;;;11.82;3.17;;;;;;;8.99;98.53;101812.63;4833256;29;20030;-81
2021/08/22 01:31:27;;;;;;;4.43;2.75;;;;;;;9.03;98.73;101813.97;4832532;29;20023;-83
2021/08/22 01:33:57;;;;;;;8.23;2.80;;;;;;;9.02;98.37;101820.34;4816380;29;20038;-83
2021/08/22 01:36:24;;;;;;;5.88;2.80;;;;;;;8.97;98.72;101814.63;4829011;29;20039;-80
2021/08/22 01:38:50;;;;;;;6.63;2.78;;;;;;;8.85;99.01;101796.16;4812686;29;20068;-81
2021/08/22 01:41:17;;;;;;;5.88;2.40;;;;;;;9.02;98.86;101814.97;4814810;29;20050;-81
2021/08/22 01:43:44;;;;;;;7.65;3.03;;;;;;;8.93;98.82;101814.09;4813327;29;20477;-82
2021/08/22 01:46:10;;;;;;;8.23;2.78;;;;;;;8.91;99.11;101811.59;4798690;29;20042;-82
2021/08/22 01:48:39;;;;;;;5.85;2.75;;;;;;;8.61;98.84;101745.94;4813786;29;20126;-82
2021/08/22 01:51:05;;;;;;;10.05;3.40;;;;;;;9.16;99.66;101807.09;4812216;29;20046;-81
2021/08/22 01:53:30;;;;;;;9.10;3.00;;;;;;;9.15;99.28;101810.81;4813719;29;20035;-82
2021/08/22 01:55:56;;;;;;;7.90;3.00;;;;;;;9.08;99.82;101798.22;4814361;29;20033;-82
2021/08/22 01:58:25;;;;;;;8.18;3.25;;;;;;;9.12;100.00;101800.41;4816118;29;20034;-81
2021/08/22 02:00:51;;;;;;;7.63;3.08;;;;;;;9.18;99.73;101807.78;4813169;29;20023;-82
2021/08/22 02:03:38;;;;;;;7.80;2.97;;;;;;;9.19;99.54;101811.31;4830058;29;20454;-82
2021/08/22 02:06:18;;;;;;;8.93;3.30;;;;;;;9.15;100.00;101804.59;4821741;29;20091;-81
2021/08/22 02:08:48;;;;;;;10.07;3.63;;;;;;;9.28;100.00;101807.66;4848513;29;20439;-82
2021/08/22 02:11:39;;;;;;;9.52;4.32;;;;;;;9.24;100.00;101792.88;4851673;29;20110;-81
2021/08/22 02:14:08;;;;;;;7.85;3.70;;;;;;;9.30;100.00;101807.47;4827497;29;20078;-82
2021/08/22 02:16:36;;;;;;;11.52;3.65;;;;;;;9.32;100.00;101806.31;4817896;29;20023;-82
2021/08/22 02:19:02;;;;;;;4.68;3.05;;;;;;;9.35;100.00;101805.13;4816619;29;20391;-81
2021/08/22 02:21:29;;;;;;;6.63;2.92;;;;;;;9.39;100.00;101809.16;4817655;29;20027;-81
2021/08/22 02:23:57;;;;;;;8.75;3.45;;;;;;;9.31;100.00;101796.56;4816684;29;20042;-80
2021/08/22 02:26:23;;;;;;;5.78;3.28;;;;;;;9.38;100.00;101805.63;4796385;29;20043;-81
2021/08/22 02:28:54;;;;;;;7.68;3.30;;;;;;;9.36;100.00;101817.53;4798059;29;20055;-82
2021/08/22 02:31:20;;;;;;;7.55;3.00;;;;;;;9.27;100.00;101808.66;4811088;29;20030;-82
2021/08/22 02:33:45;;;;;;;8.68;2.90;;;;;;;9.18;100.00;101805.09;4807552;29;20431;-82
2021/08/22 02:36:11;;;;;;;6.95;3.50;;;;;;;9.12;100.00;101799.56;4839183;29;20053;-83
2021/08/22 02:38:36;;;;;;;7.78;3.10;;;;;;;9.13;100.00;101804.75;4833584;29;20091;-82
2021/08/22 02:41:01;;;;;;;7.43;2.92;;;;;;;9.10;100.00;101806.94;4826689;29;20125;-82
2021/08/22 02:43:27;;;;;;;4.90;2.92;;;;;;;9.08;100.00;101814.31;4816501;29;20415;-83
2021/08/22 02:45:52;;;;;;;6.25;3.38;;;;;;;9.11;100.00;101816.69;4829030;29;20041;-83
2021/08/22 02:48:18;;;;;;;9.88;3.63;;;;;;;9.08;100.00;101799.06;4838782;29;20041;-83
2021/08/22 02:50:43;;;;;;;7.80;3.90;;;;;;;9.22;100.00;101810.16;4826051;29;20050;-82
2021/08/22 02:53:10;;;;;;;7.82;3.45;;;;;;;9.12;100.00;101795.03;4831283;29;20035;-82
2021/08/22 02:55:36;;;;;;;7.25;3.92;;;;;;;9.07;100.00;101802.75;4827075;29;20489;-83
2021/08/22 02:58:01;;;;;;;7.75;3.78;;;;;;;8.97;100.00;101785.09;4797799;29;20039;-82
2021/08/22 03:00:28;;;;;;;11.05;4.00;;;;;;;9.09;100.00;101811.47;4840878;29;20049;-83
2021/08/22 03:02:53;;;;;;;6.63;3.83;;;;;;;9.11;100.00;101809.47;4836014;29;20030;-82
2021/08/22 03:05:18;;;;;;;7.85;4.25;;;;;;;9.02;100.00;101799.72;4818156;29;20128;-83
2021/08/22 03:07:44;;;;;;;7.90;3.47;;;;;;;9.07;100.00;101812.63;4835884;29;20038;-83
2021/08/22 03:10:10;;;;;;;12.93;4.25;;;;;;;9.04;100.00;101797.72;4815751;29;20038;-81
2021/08/22 03:12:36;;;;;;;8.88;4.05;;;;;;;9.09;100.00;101806.09;4816417;29;20133;-82
2021/08/22 03:15:04;;;;;;;7.53;4.35;;;;;;;9.13;100.00;101806.59;4815603;29;20058;-83
2021/08/22 03:17:29;;;;;;;7.43;3.72;;;;;;;9.15;100.00;101810.81;4829200;29;20026;-82
2021/08/22 03:19:55;;;;;;;9.00;3.97;;;;;;;9.08;100.00;101798.22;4815924;29;20041;-82
2021/08/22 03:22:23;;;;;;;7.60;4.20;;;;;;;8.98;100.00;101782.25;4830786;29;20053;-82
2021/08/22 03:24:48;;;;;;;6.07;3.95;;;;;;;9.18;100.00;101812.34;4830351;29;20031;-82
2021/08/22 03:27:14;;;;;;;11.07;4.05;;;;;;;9.16;100.00;101807.09;4833583;29;20038;-83
2021/08/22 03:29:39;;;;;;;7.68;3.80;;;;;;;9.05;100.00;101820.03;4824163;29;20350;-82
2021/08/22 03:32:05;;;;;;;4.45;3.38;;;;;;;8.91;100.00;101819.66;4817223;29;20040;-82
2021/08/22 03:34:30;;;;;;;7.78;3.63;;;;;;;8.86;100.00;101816.59;4830733;29;20035;-82
2021/08/22 03:36:57;;;;;;;8.52;4.32;;;;;;;8.90;100.00;101822.47;4835284;29;20417;-82
2021/08/22 03:39:23;;;;;;;7.45;3.72;;;;;;;8.88;100.00;101819.13;4813491;29;20046;-82
2021/08/22 03:41:48;;;;;;;7.68;3.58;;;;;;;8.68;100.00;101792.56;4818658;29;20039;-82
2021/08/22 03:44:14;;;;;;;6.97;3.22;;;;;;;8.66;100.00;101797.25;4832780;29;20031;-81
2021/08/22 03:46:39;;;;;;;7.15;3.70;;;;;;;8.71;100.00;101823.63;4833965;29;20381;-81
2021/08/22 03:49:04;;;;;;;5.55;3.20;;;;;;;8.67;100.00;101827.59;4814587;29;20088;-81
2021/08/22 03:51:30;;;;;;;6.60;3.15;;;;;;;8.64;100.00;101830.59;4833376;29;20425;-81
2021/08/22 03:53:55;;;;;;;5.55;3.00;;;;;;;8.59;100.00;101819.53;4832154;29;20098;-82
2021/08/22 03:56:21;;;;;;;4.20;2.80;;;;;;;8.51;100.00;101823.03;4814682;29;20066;-83
2021/08/22 03:58:46;;;;;;;7.97;2.95;;;;;;;8.46;100.00;101820.81;4812523;29;20094;-83
2021/08/22 04:01:11;;;;;;;8.02;3.55;;;;;;;8.51;100.00;101817.66;4812868;29;20062;-82
2021/08/22 04:03:39;;;;;;;6.40;3.00;;;;;;;8.60;100.00;101826.56;4830727;29;20035;-83
2021/08/22 04:06:06;;;;;;;5.40;2.88;;;;;;;8.54;100.00;101811.09;4816037;29;20034;-81
2021/08/22 04:08:34;;;;;;;7.07;3.33;;;;;;;8.56;100.00;101826.06;4831784;29;20042;-82
2021/08/22 04:10:59;;;;;;;9.45;3.92;;;;;;;8.71;100.00;101823.63;4813196;29;20051;-82
2021/08/22 04:13:25;;;;;;;8.13;4.13;;;;;;;8.80;100.00;101822.63;4812555;29;20203;-82
2021/08/22 04:15:50;;;;;;;5.90;3.30;;;;;;;9.15;100.00;101815.34;4812633;29;20039;-83
2021/08/22 04:18:17;;;;;;;9.55;4.18;;;;;;;9.52;100.00;101830.16;4813735;29;20423;-81
2021/08/22 04:20:42;;;;;;;10.63;3.63;;;;;;;9.68;99.14;101818.59;4824814;29;20061;-82
2021/08/22 04:23:09;;;;;;;5.03;3.17;;;;;;;9.99;97.75;101819.53;4795495;29;20042;-82
2021/08/22 04:25:35;;;;;;;10.00;3.30;;;;;;;10.29;96.31;101820.69;4824269;29;20038;-82
2021/08/22 04:28:00;;;;;;;5.97;3.10;;;;;;;10.62;94.56;101831.34;4830374;29;20034;-83
2021/08/22 04:30:25;;;;;;;6.43;2.95;;;;;;;10.92;93.95;101821.63;4832199;29;20063;-82
2021/08/22 04:32:51;;;;;;;7.43;2.90;;;;;;;11.30;92.41;101829.81;4830181;29;20049;-81
2021/08/22 04:35:16;;;;;;;7.72;3.30;;;;;;;11.56;91.48;101812.47;4815263;29;20083;-81
2021/08/22 04:37:42;;;;;;;8.63;2.90;;;;;;;12.04;89.92;101838.16;4814108;29;20030;-82
2021/08/22 04:40:08;;;;;;;6.32;2.97;;;;;;;12.17;88.63;101830.28;4798440;29;20130;-82
2021/08/22 04:42:33;;;;;;;5.47;2.50;;;;;;;12.37;87.78;101835.97;4817247;29;20102;-82
2021/08/22 04:45:00;;;;;;;5.38;2.63;;;;;;;12.69;86.97;101847.44;4818421;29;20046;-83
2021/08/22 04:47:26;;;;;;;3.42;2.30;;;;;;;12.98;85.91;101835.75;4814269;29;20092;-82
2021/08/22 04:49:51;;;;;;;6.75;2.72;;;;;;;13.14;85.03;101845.47;4828476;29;20048;-82
2021/08/22 04:52:16;;;;;;;7.10;2.35;;;;;;;13.27;84.46;101844.81;4815047;29;20027;-82
2021/08/22 04:54:42;;;;;;;6.35;2.72;;;;;;;13.43;83.81;101841.88;4823235;29;20038;-82
2021/08/22 04:57:08;;;;;;;6.03;2.60;;;;;;;13.65;83.45;101834.59;4831337;29;20037;-82
2021/08/22 04:59:33;;;;;;;5.72;2.40;;;;;;;14.03;81.87;101853.22;4822081;29;20038;-82
2021/08/22 05:01:59;;;;;;;5.35;2.05;;;;;;;14.18;81.13;101850.44;4824170;29;20054;-82
2021/08/22 05:04:24;;;;;;;5.05;1.85;;;;;;;14.31;80.52;101842.41;4832121;29;20030;-80
2021/08/22 05:06:50;;;;;;;4.18;2.35;;;;;;;14.66;79.75;101856.78;4827834;29;20122;-82
2021/08/22 05:09:15;;;;;;;6.15;2.35;;;;;;;14.86;78.47;101856.03;4839960;29;20039;-82
2021/08/22 05:11:41;;;;;;;4.18;2.10;;;;;;;15.07;77.84;101852.41;4819373;29;20063;-83
2021/08/22 05:14:06;;;;;;;4.75;2.20;;;;;;;15.28;77.53;101854.94;4826711;29;20015;-84
2021/08/22 05:16:31;;;;;;;5.38;2.05;;;;;;;15.40;77.33;101850.59;4826194;29;20343;-83
2021/08/22 05:18:57;;;;;;;8.35;2.30;;;;;;;15.43;76.86;101841.19;4832869;29;20050;-82
2021/08/22 05:21:22;;;;;;;5.97;2.20;;;;;;;15.85;76.65;101855.47;4823961;29;20038;-81
2021/08/22 05:23:48;;;;;;;5.47;2.50;;;;;;;15.67;77.00;101837.13;4797941;29;20106;-81
2021/08/22 05:26:13;;;;;;;5.18;2.25;;;;;;;15.03;80.21;101858.22;4799666;29;20473;-81
2021/08/22 05:28:39;;;;;;;4.35;2.33;;;;;;;14.06;83.62;101845.53;4822470;29;20035;-81
2021/08/22 05:31:04;;;;;;;3.78;2.08;;;;;;;13.85;85.79;101845.59;4810428;29;20062;-81
2021/08/22 05:33:29;;;;;;;6.03;2.60;;;;;;;13.69;87.13;101862.94;4808503;29;20039;-82
2021/08/22 05:35:55;;;;;;;5.10;2.30;;;;;;;13.61;87.90;101863.91;4810509;29;20038;-82
2021/08/22 05:38:21;;;;;;;9.05;2.67;;;;;;;13.52;88.11;101851.53;4810242;29;20062;-81
2021/08/22 05:40:47;;;;;;;4.50;2.15;;;;;;;13.65;88.56;101866.22;4815242;29;20041;-82
2021/08/22 05:43:13;;;;;;;4.57;2.22;;;;;;;13.74;88.43;101865.91;4814557;29;20369;-83
2021/08/22 05:45:38;;;;;;;5.22;2.25;;;;;;;13.74;88.70;101865.03;4843466;29;20034;-81
2021/08/22 05:48:04;;;;;;;7.63;2.17;;;;;;;13.73;88.71;101861.50;4819706;29;20126;-83
2021/08/22 05:50:29;;;;;;;5.35;2.05;;;;;;;13.87;88.84;101873.28;4831505;29;20034;-83
2021/08/22 05:52:55;;;;;;;5.57;2.20;;;;;;;13.77;88.56;101856.53;4829885;29;20042;-81
2021/08/22 05:55:22;;;;;;;6.30;2.03;;;;;;;13.65;88.58;101842.72;4807826;29;20042;-81
2021/08/22 05:57:48;;;;;;;7.15;2.20;;;;;;;13.72;88.48;101845.47;4822468;29;20041;-81
2021/08/22 06:00:14;;;;;;;7.38;2.10;;;;;;;13.95;88.79;101865.03;4832199;29;20060;-82
2021/08/22 06:02:39;;;;;;;3.75;2.40;;;;;;;14.02;88.53;101882.16;4825843;29;20038;-82
2021/08/22 06:05:06;;;;;;;11.98;2.33;;;;;;;13.97;88.40;101864.81;4816058;29;20042;-82
2021/08/22 06:07:31;;;;;;;7.68;2.30;;;;;;;14.25;88.16;101881.91;4822727;29;20060;-82
2021/08/22 06:09:58;;;;;;;4.03;2.10;;;;;;;14.31;87.59;101883.00;4824542;29;20034;-80
2021/08/22 06:12:24;;;;;;;4.80;2.13;;;;;;;14.35;87.56;101870.75;4834665;29;20058;-82
2021/08/22 06:14:49;;;;;;;4.57;1.90;;;;;;;14.45;87.12;101859.56;4827790;29;20423;-83
2021/08/22 06:17:15;;;;;;;6.20;2.40;;;;;;;14.55;87.16;101873.59;4808208;29;20031;-82
2021/08/22 06:19:40;;;;;;;8.50;2.13;;;;;;;14.75;86.78;101898.09;4811710;29;20377;-82
2021/08/22 06:22:06;;;;;;;4.13;2.03;;;;;;;14.86;86.67;101897.53;4826143;29;20129;-81
2021/08/22 06:24:32;;;;;;;6.45;2.28;;;;;;;14.77;86.25;101887.91;4836904;29;20031;-80
2021/08/22 06:26:59;;;;;;;4.55;1.88;;;;;;;14.85;86.16;101885.03;4801033;29;20130;-82
2021/08/22 06:29:24;;;;;;;5.88;2.03;;;;;;;14.82;86.07;101893.56;4792173;29;20038;-81
2021/08/22 06:31:50;;;;;;;6.38;2.00;;;;;;;14.84;85.87;101894.19;4812089;29;20026;-81
2021/08/22 06:34:16;;;;;;;3.80;1.50;;;;;;;14.80;85.80;101901.91;4821979;29;20418;-81
2021/08/22 06:36:41;;;;;;;4.53;1.80;;;;;;;14.99;85.34;101900.28;4810542;29;20046;-81
2021/08/22 06:39:08;;;;;;;3.13;1.58;;;;;;;15.12;85.01;101904.94;4798466;29;20129;-81
2021/08/22 06:41:34;;;;;;;6.15;2.20;;;;;;;15.18;84.60;101895.19;4818872;29;20038;-82
2021/08/22 06:44:00;;;;;;;5.93;1.90;;;;;;;15.35;84.26;101896.47;4833488;29;20041;-81
2021/08/22 06:46:27;;;;;;;4.63;1.75;;;;;;;15.45;84.52;101905.06;4806751;29;20121;-82
2021/08/22 06:48:52;;;;;;;4.80;1.80;;;;;;;15.47;84.14;101886.72;4833091;29;20066;-82
2021/08/22 06:51:18;;;;;;;5.43;2.00;;;;;;;15.74;83.46;101903.91;4814002;29;20038;-80
2021/08/22 06:53:43;;;;;;;5.63;2.00;;;;;;;15.88;83.08;101904.75;4814005;29;20121;-82
2021/08/22 06:56:08;;;;;;;3.65;2.00;;;;;;;16.10;82.60;101901.84;4835989;29;20031;-81
2021/08/22 06:58:34;;;;;;;3.17;1.80;;;;;;;16.19;81.98;101897.84;4826102;29;20061;-80
2021/08/22 07:00:59;;;;;;;4.07;1.80;;;;;;;16.30;81.75;101913.53;4821715;29;20094;-81
2021/08/22 07:03:25;;;;;;;6.78;1.55;;;;;;;16.20;81.28;101910.41;4831180;29;20040;-80
2021/08/22 07:05:50;;;;;;;4.85;1.92;;;;;;;16.10;80.72;101908.13;4815343;29;20045;-81
2021/08/22 07:08:15;;;;;;;5.38;1.70;;;;;;;16.07;80.63;101907.69;4813149;29;20058;-80
2021/08/22 07:10:41;;;;;;;3.00;1.70;;;;;;;16.24;80.33;101911.66;4827115;29;20046;-80
2021/08/22 07:13:07;;;;;;;6.38;1.95;;;;;;;16.04;80.07;101908.94;4812209;29;20370;-80
2021/08/22 07:15:34;;;;;;;4.40;1.70;;;;;;;16.09;79.95;101911.03;4823572;29;20039;-81
2021/08/22 07:17:59;;;;;;;5.10;1.83;;;;;;;15.98;79.74;101890.78;4829626;29;20483;-80
2021/08/22 07:20:25;;;;;;;4.03;1.50;;;;;;;16.17;79.69;101898.09;4826233;29;20030;-81
2021/08/22 07:22:50;;;;;;;5.32;1.92;;;;;;;16.43;79.11;101909.97;4828249;29;20477;-81
2021/08/22 07:25:16;;;;;;;5.00;1.98;;;;;;;16.59;79.07;101908.72;4798518;29;20125;-81
2021/08/22 07:27:41;;;;;;;5.03;1.88;;;;;;;16.71;78.45;101908.88;4812462;29;20064;-81
2021/08/22 07:30:07;;;;;;;6.93;2.03;;;;;;;16.68;78.29;101918.28;4821191;29;20037;-81
2021/08/22 07:32:32;;;;;;;6.25;1.80;;;;;;;16.68;77.48;101912.84;4828497;29;20046;-81
2021/08/22 07:34:58;;;;;;;4.00;1.73;;;;;;;16.54;76.85;101886.75;4794292;29;20061;-81
2021/08/22 07:37:23;;;;;;;7.28;1.90;;;;;;;16.76;76.71;101926.25;4826118;29;20069;-80
2021/08/22 07:39:49;;;;;;;5.95;2.17;;;;;;;16.48;76.76;101893.03;4828791;29;20098;-81
2021/08/22 07:42:15;;;;;;;5.03;2.00;;;;;;;16.63;76.18;101924.38;4828256;29;20417;-81
2021/08/22 07:44:40;;;;;;;6.15;2.03;;;;;;;16.66;76.39;101912.25;4811029;29;20042;-81
2021/08/22 07:47:05;;;;;;;4.72;1.90;;;;;;;16.84;75.90;101920.56;4844569;29;20046;-81
2021/08/22 07:49:31;;;;;;;6.57;2.28;;;;;;;16.99;75.66;101933.94;4829167;29;20037;-81
2021/08/22 07:51:56;;;;;;;4.20;1.90;;;;;;;16.86;74.89;101926.66;4845268;29;20038;-82
2021/08/22 07:54:21;;;;;;;3.72;1.90;;;;;;;16.76;75.00;101904.50;4827038;29;20046;-81
2021/08/22 07:56:47;;;;;;;5.65;1.90;;;;;;;16.83;74.00;101921.63;4818035;29;20035;-82
2021/08/22 07:59:13;;;;;;;6.10;2.03;;;;;;;16.94;74.67;101931.00;4827166;29;20043;-82
2021/08/22 08:01:38;;;;;;;5.32;1.90;;;;;;;16.93;74.25;101917.63;4830328;29;20035;-82
2021/08/22 08:04:04;;;;;;;4.55;2.10;;;;;;;17.10;74.17;101929.69;4835336;29;20042;-81
2021/08/22 08:06:30;;;;;;;6.18;2.10;;;;;;;17.06;73.59;101931.19;4829875;29;20027;-80
2021/08/22 08:08:55;;;;;;;5.70;2.20;;;;;;;17.03;74.06;101928.91;4813861;29;20031;-80
2021/08/22 08:11:20;;;;;;;5.57;1.90;;;;;;;16.86;73.25;101902.19;4822336;29;20078;-80
2021/08/22 08:13:46;;;;;;;5.20;1.98;;;;;;;17.10;73.29;101929.69;4781709;29;20373;-80
2021/08/22 08:16:12;;;;;;;5.35;2.00;;;;;;;17.20;73.09;101927.34;4828124;29;20031;-80
2021/08/22 08:18:38;;;;;;;3.47;1.70;;;;;;;17.19;73.70;101928.41;4809592;29;20365;-80
2021/08/22 08:21:04;;;;;;;5.05;2.03;;;;;;;17.20;73.50;101929.25;4827281;29;20042;-80
2021/08/22 08:23:30;;;;;;;3.67;1.65;;;;;;;17.35;73.94;101938.81;4809976;29;20150;-78
2021/08/22 08:25:56;;;;;;;4.47;1.75;;;;;;;17.37;73.49;101924.97;4821236;29;20031;-81
2021/08/22 08:28:21;;;;;;;3.97;1.98;;;;;;;17.43;73.72;101945.03;4811575;29;20351;-80
2021/08/22 08:30:47;;;;;;;7.85;1.98;;;;;;;17.27;73.68;101938.22;4820246;29;20062;-81
2021/08/22 08:33:12;;;;;;;3.70;1.90;;;;;;;17.38;73.36;101919.34;4809167;29;20415;-80
2021/08/22 08:35:37;;;;;;;4.07;1.70;;;;;;;17.26;74.22;101918.34;4807953;29;20030;-80
2021/08/22 08:38:04;;;;;;;4.00;1.70;;;;;;;17.22;74.69;101927.97;4822239;29;20129;-81
2021/08/22 08:40:29;;;;;;;4.68;1.88;;;;;;;17.25;74.65;101933.00;4807912;29;20030;-81
2021/08/22 08:42:55;;;;;;;5.07;1.70;;;;;;;17.54;74.03;101955.22;4823480;29;20430;-81
2021/08/22 08:45:31;;;;;;;4.88;1.70;;;;;;;17.67;73.78;101946.16;4820875;29;20035;-81
2021/08/22 08:47:58;;;;;;;4.22;1.60;;;;;;;17.45;73.27;101905.69;4827867;29;20449;-81
2021/08/22 08:50:41;;;;;;;9.10;2.13;;;;;;;17.87;73.75;101963.25;4815069;29;20038;-80
2021/08/22 08:53:09;;;;;;;3.25;1.80;;;;;;;17.72;72.75;101949.91;4825155;29;20107;-80
2021/08/22 08:55:36;;;;;;;4.63;1.70;;;;;;;17.86;72.43;101955.31;4836887;29;20046;-81
2021/08/22 08:58:02;;;;;;;2.67;1.65;;;;;;;17.71;73.00;101944.66;4830843;29;20357;-80
2021/08/22 09:00:28;;;;;;;5.07;2.03;;;;;;;17.86;72.77;101963.47;4824793;29;20030;-80
2021/08/22 09:02:55;;;;;;;4.78;1.80;;;;;;;17.93;72.88;101956.09;4826937;29;20049;-81
2021/08/22 09:05:42;;;;;;;4.68;1.77;;;;;;;17.93;71.15;101939.75;4813081;29;20094;-81
2021/08/22 09:08:19;;;;;;;9.13;2.10;;;;;;;18.01;71.87;101958.53;4830171;29;20125;-80
2021/08/22 09:10:50;;;;;;;3.50;1.85;;;;;;;17.98;71.58;101964.41;4810061;29;20030;-80
2021/08/22 09:13:31;;;;;;;6.60;1.80;;;;;;;18.14;71.20;101965.78;4810295;29;20046;-80
2021/08/22 09:16:11;;;;;;;5.05;1.80;;;;;;;17.94;71.39;101953.13;4810809;29;20469;-80
2021/08/22 09:18:59;;;;;;;6.10;2.00;;;;;;;17.75;71.91;101960.38;4812935;29;20050;-80
2021/08/22 09:21:39;;;;;;;4.82;1.92;;;;;;;18.03;71.33;101956.44;4827999;29;20030;-82
2021/08/22 09:24:10;;;;;;;5.43;1.60;;;;;;;18.22;70.89;101960.91;4841325;29;20031;-80
2021/08/22 09:27:13;;;;;;;5.22;1.90;;;;;;;18.40;70.04;101962.84;4823697;29;20041;-79
2021/08/22 09:30:16;;;;;;;4.72;1.75;;;;;;;18.58;68.73;101958.50;4822562;29;20034;-80
2021/08/22 09:33:19;;;;;;;4.15;1.80;;;;;;;18.69;68.65;101961.31;4813105;29;20103;-80
2021/08/22 09:36:23;;;;;;;6.63;1.55;;;;;;;18.82;68.33;101960.38;4803234;29;20027;-81
2021/08/22 09:39:26;;;;;;;4.20;1.80;;;;;;;18.91;68.60;101963.66;4786219;29;20130;-81
2021/08/22 09:42:49;;;;;;;4.70;1.90;;;;;;;18.83;67.59;101953.03;4836655;29;20117;-83
2021/08/22 09:45:42;;;;;;;2.65;1.40;;;;;;;18.96;67.67;101952.88;4772367;30;20375;-81
2021/08/22 09:48:45;;;;;;;5.07;1.77;;;;;;;18.70;67.45;101945.78;4787697;30;20134;-82
2021/08/22 09:51:16;;;;;;;4.63;1.75;;;;;;;18.31;68.05;101954.13;4817276;29;20030;-82
2021/08/22 09:54:19;;;;;;;5.88;1.95;;;;;;;18.13;70.16;101950.50;4809313;29;20053;-80
2021/08/22 09:57:39;;;;;;;3.97;1.70;;;;;;;18.15;69.98;101951.94;4819323;29;20443;-81
2021/08/22 10:00:42;;;;;;;4.13;1.73;;;;;;;18.02;70.47;101946.59;4774368;30;20054;-79
2021/08/22 10:03:16;;;;;;;4.80;1.75;;;;;;;18.05;70.23;101954.34;4809792;29;20343;-80
2021/08/22 10:05:45;;;;;;;;;;;;;;;17.84;69.81;101950.91;4827090;29;20038;-80
2021/08/22 10:08:38;;;;;;;6.55;1.60;;;;;;;17.92;70.86;101949.81;4845088;29;19973;-82
2021/08/22 10:11:05;;;;;;;4.72;1.55;;;;;;;17.97;70.37;101940.97;4846741;29;20117;-81
2021/08/22 10:13:31;;;;;;;6.32;1.65;;;;;;;17.86;69.80;101906.28;4833010;29;20056;-82
2021/08/22 10:15:56;;;;;;;7.85;1.90;;;;;;;18.08;70.13;101951.19;4828439;29;20051;-82
2021/08/22 10:18:24;;;;;;;5.88;1.60;;;;;;;17.97;71.07;101927.34;4826001;29;20061;-82
2021/08/22 10:20:50;;;;;;;3.40;1.50;;;;;;;18.02;69.79;101946.59;4807124;29;20039;-80
2021/08/22 10:23:38;;;;;;;3.67;1.60;;;;;;;17.89;70.38;101941.25;4808040;29;20030;-82
2021/08/22 10:26:04;;;;;;;5.90;2.03;;;;;;;17.93;70.69;101940.59;4822934;29;20043;-82
2021/08/22 10:28:44;;;;;;;4.28;1.70;;;;;;;17.97;69.73;101938.25;4812643;29;20054;-81
2021/08/22 10:31:14;;;;;;;5.72;1.90;;;;;;;18.00;72.63;101941.38;4825905;29;20026;-81
2021/08/22 10:34:19;;;;;;;3.97;1.80;;;;;;;17.88;71.95;101947.72;4828095;29;20406;-80
2021/08/22 10:36:45;;;;;;;4.68;2.10;;;;;;;17.92;71.82;101940.81;4829301;29;20034;-80
2021/08/22 10:39:23;;;;;;;4.68;2.00;;;;;;;17.98;72.58;101942.63;4830102;29;20070;-80
2021/08/22 10:41:56;;;;;;;2.90;1.80;;;;;;;17.84;72.06;101920.13;4841818;29;20041;-80
2021/08/22 10:44:35;;;;;;;3.55;1.83;;;;;;;17.89;73.72;101942.09;4830396;29;20030;-80
2021/08/22 10:47:04;;;;;;;4.15;1.70;;;;;;;17.62;74.37;101906.00;4840442;29;20109;-80
2021/08/22 10:49:50;;;;;;;5.93;2.10;;;;;;;17.76;75.01;101945.72;4830837;29;20037;-80
2021/08/22 10:52:24;;;;;;;5.53;2.28;;;;;;;17.82;75.33;101941.28;4820116;29;20058;-80
2021/08/22 10:55:13;;;;;;;;;;;;;;;17.95;75.33;101940.38;4813081;29;20034;-80
2021/08/22 10:57:44;;;;;;;4.90;1.80;;;;;;;17.81;76.16;101940.47;4830628;29;19913;-81
2021/08/22 11:00:31;;;;;;;3.85;2.20;;;;;;;17.59;75.33;101920.06;4811877;29;20523;-81
2021/08/22 11:03:17;;;;;;;4.65;2.00;;;;;;;17.83;75.36;101932.06;4812788;29;20468;-80
2021/08/22 11:05:44;;;;;;;4.60;1.80;;;;;;;18.08;75.21;101927.50;4812415;29;20047;-80
2021/08/22 11:08:24;;;;;;;4.90;1.80;;;;;;;18.18;73.96;101927.00;4823141;29;20053;-80
2021/08/22 11:11:03;;;;;;;5.93;2.10;;;;;;;18.16;74.32;101923.66;4844246;29;20046;-80
2021/08/22 11:13:31;;;;;;;4.20;1.73;;;;;;;18.25;73.73;101933.22;4839260;29;20097;-81
2021/08/22 11:16:05;;;;;;;5.65;2.03;;;;;;;18.28;73.98;101938.22;4818491;29;20035;-80
2021/08/22 11:18:31;;;;;;;;;;;;;;;18.31;73.70;101940.50;4823099;29;20103;-81
2021/08/22 11:20:57;;;;;;;4.22;2.08;;;;;;;18.10;73.52;101912.81;4821187;29;19913;-82
2021/08/22 11:23:26;;;;;;;4.55;1.98;;;;;;;18.25;74.15;101913.31;4819635;29;20123;-80
2021/08/22 11:26:07;;;;;;;7.47;2.33;;;;;;;18.45;73.18;101934.94;4812937;29;20064;-81
2021/08/22 11:28:33;;;;;;;8.55;2.30;;;;;;;18.50;73.22;101933.19;4813959;29;20038;-81
2021/08/22 11:30:58;;;;;;;3.38;1.65;;;;;;;18.48;72.96;101920.84;4813407;29;20045;-81
2021/08/22 11:33:28;;;;;;;5.50;1.98;;;;;;;18.55;72.87;101933.34;4834688;29;20034;-81
2021/08/22 11:35:54;;;;;;;4.72;1.98;;;;;;;18.39;72.73;101905.84;4827183;29;20023;-82
2021/08/22 11:38:19;;;;;;;4.50;2.20;;;;;;;18.47;72.41;101935.53;4844233;29;20030;-82